createdAt,value
2023-01-11T00:01:51.733Z,99032.84
2023-01-11T00:04:20.579Z,98923.97
2023-01-11T00:06:48.481Z,98873.53
2023-01-11T00:09:17.310Z,99015.50
2023-01-11T00:11:45.327Z,99058.63
2023-01-11T00:14:13.527Z,99055.00
2023-01-11T00:16:41.508Z,99018.06
2023-01-11T00:19:10.827Z,98975.44
2023-01-11T00:21:38.682Z,98918.44
2023-01-11T00:24:07.511Z,98863.22
2023-01-11T00:26:35.461Z,98787.88
2023-01-11T00:29:03.385Z,98735.78
2023-01-11T00:31:31.514Z,98701.25
2023-01-11T00:34:00.227Z,98641.53
2023-01-11T00:36:29.649Z,98606.03
2023-01-11T00:38:57.725Z,98554.22
2023-01-11T00:41:42.994Z,98512.75
2023-01-11T00:44:29.178Z,98467.53
2023-01-11T00:47:14.747Z,98417.41
2023-01-11T00:49:43.220Z,98368.94
2023-01-11T00:52:12.690Z,98307.59
2023-01-11T00:54:42.205Z,98262.63
2023-01-11T00:57:10.583Z,98208.91
2023-01-11T00:59:40.683Z,98213.72
2023-01-11T01:02:09.502Z,98153.81
2023-01-11T01:04:37.512Z,98097.06
2023-01-11T01:07:05.942Z,98036.47
2023-01-11T01:09:35.383Z,97981.41
2023-01-11T01:12:03.325Z,97934.66
2023-01-11T01:14:30.738Z,97896.81
2023-01-11T01:17:00.412Z,97861.94
2023-01-11T01:19:29.829Z,97828.16
2023-01-11T01:21:59.235Z,97795.50
2023-01-11T01:24:28.973Z,97759.81
2023-01-11T01:26:59.317Z,97713.00
2023-01-11T01:29:27.776Z,97678.28
2023-01-11T01:31:55.586Z,97641.16
2023-01-11T01:34:23.374Z,97607.75
2023-01-11T01:36:51.279Z,97564.66
2023-01-11T01:39:19.154Z,97544.19
2023-01-11T01:41:47.151Z,97510.66
2023-01-11T01:44:55.067Z,97492.91
2023-01-11T01:47:28.342Z,97455.66
2023-01-11T01:49:57.941Z,97427.00
2023-01-11T01:52:29.275Z,97420.31
2023-01-11T01:55:01.263Z,97405.22
2023-01-11T01:57:34.001Z,97410.13
2023-01-11T02:00:08.029Z,97411.56
2023-01-11T02:02:38.311Z,97411.38
2023-01-11T02:05:08.228Z,97425.25
2023-01-11T02:07:39.144Z,97456.88
2023-01-11T02:10:09.809Z,97489.59
2023-01-11T02:12:41.074Z,97511.91
2023-01-11T02:15:11.804Z,97548.72
2023-01-11T02:17:39.892Z,97583.28
2023-01-11T02:20:21.477Z,97602.06
2023-01-11T02:23:10.506Z,97630.59
2023-01-11T02:26:17.078Z,97688.94
2023-01-11T02:28:55.167Z,97725.97
2023-01-11T02:31:30.911Z,97751.63
2023-01-11T02:34:13.055Z,97785.69
2023-01-11T02:36:53.240Z,97827.34
2023-01-11T02:39:31.927Z,97861.34
2023-01-11T02:42:27.774Z,97915.72
2023-01-11T02:45:07.047Z,97994.28
2023-01-11T02:47:40.869Z,98073.06
2023-01-11T02:50:17.854Z,98155.53
2023-01-11T02:52:54.656Z,98243.84
2023-01-11T02:55:26.686Z,98313.53
2023-01-11T02:57:57.331Z,98350.22
2023-01-11T03:00:27.079Z,98449.53
2023-01-11T03:03:15.238Z,98529.16
2023-01-11T03:05:50.297Z,98619.69
2023-01-11T03:08:55.049Z,98729.13
2023-01-11T03:11:48.216Z,98874.97
2023-01-11T03:14:26.792Z,99026.78
2023-01-11T03:17:06.232Z,99194.94
2023-01-11T03:19:40.855Z,99340.72
2023-01-11T03:22:17.918Z,99446.28
2023-01-11T03:24:51.477Z,99582.63
2023-01-11T03:27:30.689Z,99750.78
2023-01-11T03:30:07.384Z,99870.63
2023-01-11T03:32:45.801Z,100089.06
2023-01-11T03:35:20.955Z,100217.75
2023-01-11T03:37:55.651Z,100300.09
2023-01-11T03:40:29.028Z,100414.94
2023-01-11T03:43:14.643Z,100549.03
2023-01-11T03:45:52.190Z,100810.88
2023-01-11T03:48:25.020Z,100891.06
2023-01-11T03:50:55.557Z,100926.06
2023-01-11T03:53:26.502Z,100989.84
2023-01-11T03:55:57.537Z,101035.44
2023-01-11T03:58:27.684Z,101031.16
2023-01-11T04:00:56.427Z,101135.56
2023-01-11T04:03:27.232Z,101058.84
2023-01-11T04:05:59.088Z,101076.75
2023-01-11T04:08:27.293Z,101097.88
2023-01-11T04:10:55.214Z,101053.13
2023-01-11T04:13:23.163Z,101092.56
2023-01-11T04:15:51.038Z,101135.16
2023-01-11T04:18:18.932Z,101119.28
2023-01-11T04:20:48.334Z,101121.16
2023-01-11T04:23:16.340Z,101136.28
2023-01-11T04:25:44.324Z,101197.94
2023-01-11T04:28:12.554Z,101165.53
2023-01-11T04:30:40.487Z,101246.03
2023-01-11T04:33:10.880Z,101204.63
2023-01-11T04:35:38.835Z,101270.78
2023-01-11T04:38:08.069Z,101244.56
2023-01-11T04:40:35.964Z,101254.16
2023-01-11T04:43:03.397Z,101215.69
2023-01-11T04:45:31.465Z,101122.41
2023-01-11T04:47:59.510Z,101032.31
2023-01-11T04:50:28.345Z,100982.72
2023-01-11T04:52:56.303Z,100885.03
2023-01-11T04:55:25.931Z,100782.66
2023-01-11T04:57:53.867Z,100665.00
2023-01-11T05:00:22.308Z,100377.31
2023-01-11T05:02:50.305Z,100262.63
2023-01-11T05:05:18.456Z,99938.78
2023-01-11T05:07:46.433Z,99791.91
2023-01-11T05:10:14.267Z,99682.91
2023-01-11T05:12:43.547Z,99405.22
2023-01-11T05:15:11.631Z,99386.81
2023-01-11T05:17:39.446Z,99394.78
2023-01-11T05:20:08.313Z,99402.25
2023-01-11T05:22:36.157Z,99456.53
2023-01-11T05:25:04.225Z,99460.84
2023-01-11T05:27:32.137Z,99498.06
2023-01-11T05:30:01.534Z,99485.63
2023-01-11T05:32:29.362Z,99493.66
2023-01-11T05:34:57.358Z,99405.88
2023-01-11T05:37:25.191Z,99445.09
2023-01-11T05:39:53.009Z,99431.66
2023-01-11T05:42:22.214Z,99441.31
2023-01-11T05:45:19.166Z,99478.13
2023-01-11T05:47:48.572Z,99580.25
2023-01-11T05:50:17.064Z,99538.00
2023-01-11T05:52:44.914Z,99705.56
2023-01-11T05:55:12.761Z,99762.84
2023-01-11T05:57:42.196Z,99726.88
2023-01-11T06:00:11.761Z,99708.16
2023-01-11T06:02:39.878Z,99801.59
2023-01-11T06:05:10.314Z,99702.25
2023-01-11T06:07:38.287Z,99761.44
2023-01-11T06:10:06.891Z,99736.56
2023-01-11T06:12:34.735Z,99563.38
2023-01-11T06:15:02.785Z,99708.75
2023-01-11T06:17:30.594Z,99646.56
2023-01-11T06:19:58.496Z,99660.84
2023-01-11T06:22:27.855Z,99626.00
2023-01-11T06:24:55.774Z,99558.41
2023-01-11T06:27:23.718Z,99614.47
2023-01-11T06:29:51.564Z,99579.25
2023-01-11T06:32:19.459Z,99537.94
2023-01-11T06:34:47.390Z,99471.63
2023-01-11T06:37:15.321Z,99479.16
2023-01-11T06:39:44.861Z,99373.63
2023-01-11T06:42:12.833Z,99368.97
2023-01-11T06:44:40.680Z,99361.03
2023-01-11T06:47:08.613Z,99322.22
2023-01-11T06:49:36.534Z,99316.47
2023-01-11T06:52:04.536Z,99350.84
2023-01-11T06:54:32.294Z,99268.38
2023-01-11T06:57:01.716Z,99248.28
2023-01-11T06:59:29.543Z,99261.47
2023-01-11T07:01:58.827Z,99213.25
2023-01-11T07:04:27.095Z,99194.63
2023-01-11T07:06:55.613Z,99182.84
2023-01-11T07:09:23.598Z,99184.78
2023-01-11T07:11:51.792Z,99137.53
2023-01-11T07:14:22.111Z,99061.13
2023-01-11T07:16:50.002Z,99038.06
2023-01-11T07:19:18.651Z,99131.97
2023-01-11T07:21:46.653Z,99150.59
2023-01-11T07:24:14.567Z,99127.91
2023-01-11T07:26:43.243Z,99148.94
2023-01-11T07:29:11.997Z,99148.59
2023-01-11T07:31:41.562Z,99165.50
2023-01-11T07:34:10.506Z,99263.38
2023-01-11T07:36:39.675Z,99263.09
2023-01-11T07:39:08.780Z,99263.31
2023-01-11T07:41:54.105Z,99259.88
2023-01-11T07:44:22.426Z,99292.59
2023-01-11T07:46:52.061Z,99332.75
2023-01-11T07:49:20.079Z,99448.69
2023-01-11T07:51:48.253Z,99590.31
2023-01-11T07:54:16.257Z,99542.34
2023-01-11T07:56:44.300Z,99490.50
2023-01-11T07:59:12.301Z,99409.59
2023-01-11T08:01:40.175Z,99290.69
2023-01-11T08:04:12.089Z,99129.13
2023-01-11T08:06:40.387Z,99030.78
2023-01-11T08:09:10.004Z,98970.97
2023-01-11T08:11:55.262Z,98922.59
2023-01-11T08:14:41.901Z,98813.59
2023-01-11T08:17:11.532Z,98699.88
2023-01-11T08:19:41.423Z,98611.75
2023-01-11T08:22:09.874Z,98609.22
2023-01-11T08:24:37.798Z,98564.00
2023-01-11T08:27:06.036Z,98591.25
2023-01-11T08:29:34.073Z,98530.34
2023-01-11T08:32:01.870Z,98359.50
2023-01-11T08:34:29.850Z,98081.81
2023-01-11T08:37:01.957Z,97796.78
2023-01-11T08:39:31.048Z,97524.91
2023-01-11T08:41:59.471Z,97162.56
2023-01-11T08:44:35.142Z,96818.94
2023-01-11T08:47:03.557Z,96518.66
2023-01-11T08:49:31.583Z,96286.28
2023-01-11T08:52:00.887Z,96015.91
2023-01-11T08:54:28.910Z,95705.78
2023-01-11T08:56:56.971Z,95564.81
2023-01-11T08:59:24.926Z,95508.25
2023-01-11T09:01:52.827Z,95510.06
2023-01-11T09:04:25.208Z,95543.56
2023-01-11T09:06:53.784Z,95532.78
2023-01-11T09:09:23.185Z,95484.78
2023-01-11T09:11:58.747Z,95421.16
2023-01-11T09:14:29.055Z,95362.09
2023-01-11T09:16:57.904Z,95322.25
2023-01-11T09:19:26.274Z,95299.97
2023-01-11T09:21:56.817Z,95258.78
2023-01-11T09:24:26.202Z,95238.78
2023-01-11T09:26:54.206Z,95219.91
2023-01-11T09:29:22.172Z,95189.50
2023-01-11T09:31:50.255Z,95154.97
2023-01-11T09:34:19.211Z,95159.59
2023-01-11T09:36:48.913Z,95193.78
2023-01-11T09:39:19.618Z,95181.22
2023-01-11T09:42:08.851Z,95158.59
2023-01-11T09:44:43.025Z,95154.47
2023-01-11T09:47:19.561Z,95158.06
2023-01-11T09:49:54.552Z,95173.31
2023-01-11T09:52:28.948Z,95160.00
2023-01-11T09:54:58.756Z,95152.97
2023-01-11T09:57:42.525Z,95131.47
2023-01-11T10:00:23.794Z,95126.47
2023-01-11T10:03:07.726Z,95121.69
2023-01-11T10:05:51.416Z,95097.50
2023-01-11T10:18:28.621Z,95160.75
2023-01-11T10:18:38.577Z,95153.22
2023-01-11T10:20:35.554Z,95146.66
2023-01-11T10:23:10.266Z,95164.91
2023-01-11T10:25:47.999Z,95183.66
2023-01-11T10:28:25.250Z,95209.22
2023-01-11T10:31:11.893Z,95205.13
2023-01-11T10:34:06.357Z,95209.94
2023-01-11T10:36:55.710Z,95230.88
2023-01-11T10:39:50.607Z,95262.22
2023-01-11T10:42:24.009Z,95273.34
2023-01-11T10:45:03.314Z,95288.50
2023-01-11T10:47:41.453Z,95291.44
2023-01-11T10:50:20.711Z,95312.81
2023-01-11T10:53:03.572Z,95329.06
2023-01-11T10:55:36.353Z,95344.09
2023-01-11T10:58:15.302Z,95368.16
2023-01-11T11:00:51.739Z,95401.66
2023-01-11T11:03:48.465Z,95412.22
2023-01-11T11:06:28.671Z,95447.88
2023-01-11T11:09:09.682Z,95475.66
2023-01-11T11:11:42.797Z,95476.84
2023-01-11T11:14:20.946Z,95498.84
2023-01-11T11:17:01.026Z,95500.41
2023-01-11T11:19:33.386Z,95494.88
2023-01-11T11:22:02.367Z,95527.09
2023-01-11T11:24:38.409Z,95539.50
2023-01-11T11:27:21.947Z,95565.94
2023-01-11T11:29:52.814Z,95591.75
2023-01-11T11:32:26.737Z,95612.72
2023-01-11T11:34:59.038Z,95615.25
2023-01-11T11:37:32.880Z,95640.69
2023-01-11T11:40:01.658Z,95662.22
2023-01-11T11:42:30.684Z,95685.66
2023-01-11T11:45:18.632Z,95666.56
2023-01-11T11:48:07.035Z,95681.13
2023-01-11T11:50:44.658Z,95685.03
2023-01-11T11:53:26.732Z,95771.84
2023-01-11T11:55:55.865Z,95784.25
2023-01-11T11:58:29.983Z,95801.09
2023-01-11T12:00:58.761Z,95823.84
2023-01-11T12:03:33.246Z,95850.22
2023-01-11T12:06:07.503Z,95848.53
2023-01-11T12:08:37.583Z,95848.94
2023-01-11T12:11:09.168Z,95884.13
2023-01-11T12:13:41.954Z,95912.97
2023-01-11T12:16:22.131Z,95927.22
2023-01-11T12:18:50.995Z,95952.53
2023-01-11T12:21:24.645Z,95979.47
2023-01-11T12:24:10.732Z,95984.38
2023-01-11T12:39:02.844Z,96084.69
2023-01-11T12:41:52.706Z,96078.06
2023-01-11T12:44:54.212Z,96098.41
2023-01-11T12:47:53.400Z,96113.72
2023-01-11T12:50:24.956Z,96160.38
2023-01-11T12:53:13.570Z,96179.66
2023-01-11T12:55:54.826Z,96202.84
2023-01-11T12:58:33.023Z,96251.78
2023-01-11T13:01:29.331Z,96276.28
2023-01-11T13:04:34.420Z,96346.97
2023-01-11T13:07:14.120Z,96418.09
2023-01-11T13:09:55.059Z,96455.41
2023-01-11T13:12:30.685Z,96506.41
2023-01-11T13:15:10.619Z,96528.81
2023-01-11T13:17:44.075Z,96533.53
2023-01-11T13:20:58.549Z,96557.31
2023-01-11T13:23:36.135Z,96549.34
2023-01-11T13:26:14.243Z,96580.56
2023-01-11T13:28:47.547Z,96593.31
2023-01-11T13:31:16.569Z,96611.84
2023-01-11T13:33:52.782Z,96620.19
2023-01-11T13:36:26.271Z,96639.16
2023-01-11T13:38:59.259Z,96639.91
2023-01-11T13:41:31.271Z,96635.72
2023-01-11T13:44:05.133Z,96643.38
2023-01-11T13:46:54.848Z,96650.78
2023-01-11T13:49:38.718Z,96649.59
2023-01-11T13:52:13.470Z,96660.81
2023-01-11T13:54:51.236Z,96692.69
2023-01-11T13:57:26.012Z,96699.94
2023-01-11T14:00:02.864Z,96750.44
2023-01-11T14:02:43.862Z,96765.38
2023-01-11T14:05:17.633Z,96799.22
2023-01-11T14:08:00.696Z,96797.00
2023-01-11T14:10:39.908Z,96802.34
2023-01-11T14:13:48.181Z,96830.16
2023-01-11T14:16:23.408Z,96873.47
2023-01-11T14:19:01.540Z,96911.19
2023-01-11T14:21:35.222Z,96923.25
2023-01-11T14:24:05.743Z,96951.16
2023-01-11T14:27:00.602Z,96976.38
2023-01-11T14:29:46.983Z,96994.66
2023-01-11T14:32:38.317Z,97012.97
2023-01-11T14:35:47.957Z,97024.44
2023-01-11T14:38:44.655Z,97092.13
2023-01-11T14:41:39.657Z,97111.63
2023-01-11T14:44:30.644Z,97150.00
2023-01-11T14:47:14.239Z,97173.53
2023-01-11T14:50:00.480Z,97198.84
2023-01-11T14:52:39.713Z,97207.41
2023-01-11T14:55:16.904Z,97214.94
2023-01-11T14:58:00.735Z,97256.47
2023-01-11T15:01:13.865Z,97261.72
2023-01-11T15:03:49.066Z,97340.34
2023-01-11T15:06:21.495Z,97378.91
2023-01-11T15:08:52.564Z,97392.94
2023-01-11T15:11:40.921Z,97389.03
2023-01-11T15:14:24.942Z,97421.53
2023-01-11T15:17:13.160Z,97433.66
2023-01-11T15:19:44.745Z,97433.69
2023-01-11T15:22:26.778Z,97459.13
2023-01-11T15:25:00.822Z,97468.72
2023-01-11T15:27:33.652Z,97500.34
2023-01-11T15:30:02.325Z,97484.03
2023-01-11T15:32:31.788Z,97504.75
2023-01-11T15:35:34.179Z,97506.94
2023-01-11T15:38:11.264Z,97513.16
2023-01-11T15:40:41.916Z,97531.00
2023-01-11T15:43:48.795Z,97556.22
2023-01-11T15:46:56.895Z,97542.94
2023-01-11T15:50:06.269Z,97512.81
2023-01-11T15:53:10.654Z,97506.44
2023-01-11T15:56:15.942Z,97514.19
2023-01-11T15:59:31.616Z,97503.41
2023-01-11T16:02:31.944Z,97462.34
2023-01-11T16:05:10.306Z,97458.97
2023-01-11T16:07:44.100Z,97485.03
2023-01-11T16:10:45.519Z,97483.38
2023-01-11T16:13:30.818Z,97497.69
2023-01-11T16:16:12.233Z,97503.25
2023-01-11T16:18:45.199Z,97530.63
2023-01-11T16:21:19.263Z,97503.91
2023-01-11T16:23:47.449Z,97516.16
2023-01-11T16:26:20.799Z,97479.69
2023-01-11T16:28:53.161Z,97507.06
2023-01-11T16:31:21.412Z,97472.63
2023-01-11T16:33:50.188Z,97469.75
2023-01-11T16:36:21.166Z,97476.66
2023-01-11T16:38:58.009Z,97477.78
2023-01-11T16:41:30.335Z,97452.94
2023-01-11T16:44:03.301Z,97398.13
2023-01-11T16:47:11.970Z,97425.34
2023-01-11T16:49:41.031Z,97428.53
2023-01-11T16:52:39.215Z,97435.44
2023-01-11T16:55:27.284Z,97480.50
2023-01-11T16:57:59.458Z,97474.31
2023-01-11T17:00:35.889Z,97506.09
2023-01-11T17:03:19.445Z,97528.94
2023-01-11T17:06:02.540Z,97568.81
2023-01-11T17:08:32.993Z,97565.94
2023-01-11T17:11:04.060Z,97593.50
2023-01-11T17:13:57.702Z,97583.06
2023-01-11T17:16:30.405Z,97581.94
2023-01-11T17:19:09.446Z,97607.09
2023-01-11T17:21:37.501Z,97626.97
2023-01-11T17:24:07.827Z,97642.91
2023-01-11T17:26:43.642Z,97631.69
2023-01-11T17:29:17.376Z,97627.13
2023-01-11T17:31:46.932Z,97610.97
2023-01-11T17:34:18.751Z,97604.25
2023-01-11T17:36:47.679Z,97578.03
2023-01-11T17:39:23.047Z,97587.06
2023-01-11T17:42:08.832Z,97592.56
2023-01-11T17:44:54.565Z,97568.53
2023-01-11T17:47:24.795Z,97543.38
2023-01-11T17:49:54.040Z,97554.59
2023-01-11T17:52:24.513Z,97532.56
2023-01-11T17:55:02.852Z,97488.38
2023-01-11T17:57:32.461Z,97477.47
2023-01-11T18:00:26.061Z,97487.84
2023-01-11T18:02:56.258Z,97462.97
2023-01-11T18:05:28.784Z,97457.59
2023-01-11T18:07:58.977Z,97436.44
2023-01-11T18:10:29.746Z,97430.88
2023-01-11T18:12:58.948Z,97424.66
2023-01-11T18:15:31.314Z,97424.66
2023-01-11T18:18:02.555Z,97436.41
2023-01-11T18:20:39.559Z,97445.78
2023-01-11T18:23:20.276Z,97450.19
2023-01-11T18:25:48.672Z,97450.53
2023-01-11T18:28:28.640Z,97479.91
2023-01-11T18:31:01.623Z,97481.09
2023-01-11T18:33:34.554Z,97492.47
2023-01-11T18:36:04.705Z,97502.69
2023-01-11T18:38:34.361Z,97499.22
2023-01-11T18:41:28.527Z,97486.28
2023-01-11T18:43:56.858Z,97508.72
2023-01-11T18:46:24.949Z,97518.31
2023-01-11T18:48:54.575Z,97527.47
2023-01-11T18:51:28.077Z,97536.72
2023-01-11T18:53:56.292Z,97542.56
2023-01-11T18:56:24.455Z,97550.16
2023-01-11T18:58:52.292Z,97544.69
2023-01-11T19:01:20.330Z,97548.06
2023-01-11T19:03:48.973Z,97575.75
2023-01-11T19:06:21.073Z,97605.75
2023-01-11T19:08:49.071Z,97600.84
2023-01-11T19:11:17.095Z,97609.63
2023-01-11T19:13:46.802Z,97627.19
2023-01-11T19:16:16.086Z,97645.41
2023-01-11T19:18:45.261Z,97628.56
2023-01-11T19:21:14.494Z,97661.34
2023-01-11T19:23:43.919Z,97635.69
2023-01-11T19:26:11.847Z,97647.38
2023-01-11T19:28:39.712Z,97665.03
2023-01-11T19:31:08.815Z,97647.84
2023-01-11T19:33:36.715Z,97653.22
2023-01-11T19:36:06.952Z,97670.03
2023-01-11T19:38:35.243Z,97682.47
2023-01-11T19:41:07.481Z,97697.13
2023-01-11T19:43:36.018Z,97695.53
2023-01-11T19:46:04.619Z,97688.16
2023-01-11T19:48:33.113Z,97701.66
2023-01-11T19:51:05.692Z,97716.03
2023-01-11T19:53:33.907Z,97706.66
2023-01-11T19:56:02.199Z,97702.25
2023-01-11T19:58:31.693Z,97695.28
2023-01-11T20:00:59.604Z,97717.19
2023-01-11T20:03:29.734Z,97717.47
2023-01-11T20:06:07.618Z,97724.13
2023-01-11T20:08:38.521Z,97706.25
2023-01-11T20:11:07.809Z,97702.94
2023-01-11T20:13:37.073Z,97696.56
2023-01-11T20:16:06.763Z,97706.09
2023-01-11T20:18:34.911Z,97719.94
2023-01-11T20:21:03.018Z,97725.63
2023-01-11T20:23:31.607Z,97724.38
2023-01-11T20:26:00.468Z,97701.50
2023-01-11T20:28:28.814Z,97712.63
2023-01-11T20:31:01.283Z,97728.06
2023-01-11T20:33:29.936Z,97723.53
2023-01-11T20:35:57.855Z,97729.69
2023-01-11T20:38:25.909Z,97734.59
2023-01-11T20:40:54.384Z,97736.28
2023-01-11T20:43:22.214Z,97758.47
2023-01-11T20:45:56.315Z,97758.22
2023-01-11T20:48:26.080Z,97776.91
2023-01-11T20:50:54.099Z,97759.31
2023-01-11T20:53:21.986Z,97768.31
2023-01-11T20:55:49.933Z,97781.34
2023-01-11T20:58:17.957Z,97799.53
2023-01-11T21:00:45.905Z,97804.63
2023-01-11T21:03:13.928Z,97817.38
2023-01-11T21:05:43.213Z,97818.91
2023-01-11T21:08:11.136Z,97826.41
2023-01-11T21:10:38.964Z,97807.41
2023-01-11T21:15:37.141Z,97746.72
2023-01-11T21:18:05.552Z,97738.66
2023-01-11T21:20:33.403Z,97727.13
2023-01-11T21:23:02.933Z,97697.72
2023-01-11T21:25:30.826Z,97686.22
2023-01-11T21:28:00.026Z,97690.06
2023-01-11T21:30:28.163Z,97623.91
2023-01-11T21:32:57.267Z,97629.41
2023-01-11T21:35:25.277Z,97623.75
2023-01-11T21:37:53.186Z,97605.28
2023-01-11T21:40:23.127Z,97603.53
2023-01-11T21:42:51.124Z,97612.78
2023-01-11T21:45:19.443Z,97612.34
2023-01-11T21:47:47.487Z,97621.53
2023-01-11T21:50:15.438Z,97638.16
2023-01-11T21:52:43.504Z,97648.09
2023-01-11T21:55:12.109Z,97671.63
2023-01-11T21:57:41.466Z,97653.19
2023-01-11T22:00:10.959Z,97661.88
2023-01-11T22:02:40.058Z,97673.38
2023-01-11T22:05:09.439Z,97707.38
2023-01-11T22:07:38.245Z,97707.47
2023-01-11T22:10:06.706Z,97702.25
2023-01-11T22:12:35.263Z,97698.78
2023-01-11T22:15:04.868Z,97706.16
2023-01-11T22:17:32.774Z,97703.47
2023-01-11T22:20:01.171Z,97711.09
2023-01-11T22:22:29.276Z,97714.34
2023-01-11T22:24:57.103Z,97715.50
2023-01-11T22:27:24.996Z,97732.56
2023-01-11T22:29:54.733Z,97728.00
2023-01-11T22:32:24.400Z,97696.28
2023-01-11T22:34:52.378Z,97702.34
2023-01-11T22:37:22.411Z,97693.56
2023-01-11T22:39:50.274Z,97702.06
2023-01-11T22:42:18.203Z,97682.38
2023-01-11T22:44:46.209Z,97652.38
2023-01-11T22:47:14.039Z,97613.75
2023-01-11T22:49:43.525Z,97567.00
2023-01-11T22:52:11.475Z,97532.16
2023-01-11T22:54:39.509Z,97459.97
2023-01-11T22:57:07.475Z,97386.75
2023-01-11T22:59:35.624Z,97359.34
2023-01-11T23:02:03.573Z,97311.66
2023-01-11T23:04:33.093Z,97238.44
2023-01-11T23:07:02.426Z,97189.41
2023-01-11T23:09:30.290Z,97153.47
2023-01-11T23:12:15.615Z,97125.06
2023-01-11T23:14:43.414Z,97073.88
2023-01-11T23:17:11.620Z,97028.41
2023-01-11T23:19:41.654Z,96970.63
2023-01-11T23:22:11.107Z,96930.03
2023-01-11T23:24:39.885Z,96878.88
2023-01-11T23:27:07.882Z,96863.00
2023-01-11T23:29:36.353Z,96844.97
2023-01-11T23:32:04.585Z,96819.44
2023-01-11T23:34:32.474Z,96828.91
2023-01-11T23:37:00.346Z,96840.53
2023-01-11T23:39:30.664Z,96849.44
2023-01-11T23:42:16.070Z,96853.59
2023-01-11T23:44:43.976Z,96843.84
2023-01-11T23:47:29.877Z,96845.91
2023-01-11T23:50:00.256Z,96857.31
2023-01-11T23:52:30.168Z,96859.00
2023-01-11T23:54:59.586Z,96876.63
2023-01-11T23:57:27.941Z,96873.25
2023-01-11T23:59:55.890Z,96909.34
